createdAt,value
2023-02-17T00:00:28.522Z,43.73
2023-02-17T00:03:05.142Z,41.30
2023-02-17T00:05:42.205Z,39.73
2023-02-17T00:08:13.642Z,38.77
2023-02-17T00:10:41.792Z,43.67
2023-02-17T00:13:15.760Z,41.00
2023-02-17T00:15:43.804Z,41.77
2023-02-17T00:18:11.748Z,39.30
2023-02-17T00:20:39.766Z,43.57
2023-02-17T00:23:10.784Z,35.13
2023-02-17T00:25:42.052Z,43.20
2023-02-17T00:28:09.898Z,45.27
2023-02-17T00:30:42.287Z,41.43
2023-02-17T00:33:29.663Z,41.03
2023-02-17T00:36:06.381Z,40.13
2023-02-17T00:38:40.364Z,41.33
2023-02-17T00:41:13.757Z,38.77
2023-02-17T00:43:41.753Z,41.27
2023-02-17T00:46:12.477Z,46.83
2023-02-17T00:48:41.591Z,40.80
2023-02-17T00:51:10.944Z,40.00
2023-02-17T00:53:41.345Z,42.67
2023-02-17T00:56:10.496Z,40.93
2023-02-17T00:58:41.511Z,38.73
2023-02-17T01:01:13.265Z,36.20
2023-02-17T01:03:42.461Z,38.90
2023-02-17T01:06:21.165Z,40.60
2023-02-17T01:08:52.286Z,38.47
2023-02-17T01:11:26.335Z,40.37
2023-02-17T01:13:55.635Z,38.73
2023-02-17T01:16:30.667Z,39.83
2023-02-17T01:19:03.182Z,39.17
2023-02-17T01:21:31.870Z,40.30
2023-02-17T01:24:03.737Z,41.47
2023-02-17T01:26:33.945Z,37.87
2023-02-17T01:29:04.577Z,44.63
2023-02-17T01:31:45.760Z,41.63
2023-02-17T01:34:13.599Z,40.77
2023-02-17T01:36:41.337Z,41.10
2023-02-17T01:39:14.914Z,44.03
2023-02-17T01:41:43.417Z,47.40
2023-02-17T01:44:24.312Z,48.53
2023-02-17T01:46:55.613Z,44.50
2023-02-17T01:49:40.947Z,51.73
2023-02-17T01:52:19.584Z,45.53
2023-02-17T01:54:59.775Z,53.17
2023-02-17T01:57:32.884Z,53.23
2023-02-17T02:00:00.880Z,52.80
2023-02-17T02:02:31.019Z,51.67
2023-02-17T02:05:00.384Z,53.33
2023-02-17T02:07:37.445Z,55.07
2023-02-17T02:10:07.045Z,53.40
2023-02-17T02:12:40.080Z,56.87
2023-02-17T02:15:13.068Z,54.63
2023-02-17T02:18:05.284Z,55.30
2023-02-17T02:21:01.798Z,54.67
2023-02-17T02:23:47.274Z,53.03
2023-02-17T02:26:48.834Z,59.30
2023-02-17T02:30:02.506Z,56.70
2023-02-17T02:32:48.414Z,50.57
2023-02-17T02:35:34.269Z,57.40
2023-02-17T02:38:15.661Z,58.53
2023-02-17T02:41:02.427Z,53.70
2023-02-17T02:43:31.313Z,59.73
2023-02-17T02:45:59.589Z,57.17
2023-02-17T02:48:28.192Z,62.70
2023-02-17T02:51:23.216Z,59.97
2023-02-17T02:54:27.064Z,61.23
2023-02-17T02:57:30.016Z,62.10
2023-02-17T03:00:17.351Z,63.03
2023-02-17T03:03:15.610Z,65.23
2023-02-17T03:06:04.971Z,63.80
2023-02-17T03:08:47.313Z,67.73
2023-02-17T03:11:32.162Z,66.93
2023-02-17T03:14:09.193Z,68.60
2023-02-17T03:16:41.643Z,72.20
2023-02-17T03:19:10.723Z,59.77
2023-02-17T03:21:47.348Z,60.97
2023-02-17T03:24:15.628Z,62.97
2023-02-17T03:26:46.950Z,65.63
2023-02-17T03:29:22.102Z,66.43
2023-02-17T03:31:50.064Z,62.03
2023-02-17T03:34:21.046Z,61.20
2023-02-17T03:36:50.702Z,54.90
2023-02-17T03:39:18.513Z,59.83
2023-02-17T03:41:46.164Z,57.00
2023-02-17T03:44:13.847Z,61.50
2023-02-17T03:46:41.544Z,59.17
2023-02-17T03:49:09.758Z,57.63
2023-02-17T03:51:38.205Z,52.80
2023-02-17T03:54:10.552Z,52.77
2023-02-17T03:56:42.695Z,50.17
2023-02-17T03:59:10.515Z,47.97
2023-02-17T04:01:38.318Z,48.87
2023-02-17T04:04:06.065Z,47.80
2023-02-17T04:06:33.911Z,48.40
2023-02-17T04:09:01.894Z,46.27
2023-02-17T04:11:29.552Z,46.83
2023-02-17T04:13:57.393Z,44.37
2023-02-17T04:16:29.170Z,42.47
2023-02-17T04:18:57.015Z,39.67
2023-02-17T04:21:24.844Z,40.47
2023-02-17T04:23:55.028Z,40.07
2023-02-17T04:26:22.772Z,42.83
2023-02-17T04:28:50.685Z,33.23
2023-02-17T04:31:18.553Z,36.40
2023-02-17T04:33:46.203Z,33.77
2023-02-17T04:36:16.458Z,34.60
2023-02-17T04:38:44.128Z,34.10
2023-02-17T04:41:11.751Z,35.57
2023-02-17T04:43:41.751Z,33.90
2023-02-17T04:46:11.887Z,32.57
2023-02-17T04:48:39.773Z,33.60
2023-02-17T04:51:07.515Z,32.00
2023-02-17T04:53:35.265Z,31.97
2023-02-17T04:56:03.285Z,30.27
2023-02-17T04:58:31.087Z,27.80
2023-02-17T05:01:00.092Z,31.03
2023-02-17T05:03:27.796Z,32.57
2023-02-17T05:05:56.992Z,30.93
2023-02-17T05:08:24.994Z,29.07
2023-02-17T05:10:52.592Z,27.43
2023-02-17T05:13:20.619Z,28.27
2023-02-17T05:15:48.404Z,25.77
2023-02-17T05:18:19.460Z,28.57
2023-02-17T05:20:47.302Z,25.23
2023-02-17T05:23:21.748Z,26.57
2023-02-17T05:25:49.565Z,23.20
2023-02-17T05:28:17.472Z,27.27
2023-02-17T05:30:45.576Z,24.97
2023-02-17T05:33:13.332Z,25.97
2023-02-17T05:35:41.244Z,28.60
2023-02-17T05:38:09.190Z,24.67
2023-02-17T05:40:37.218Z,24.53
2023-02-17T05:43:07.817Z,22.10
2023-02-17T05:45:39.924Z,25.27
2023-02-17T05:48:09.909Z,20.93
2023-02-17T05:50:37.972Z,20.37
2023-02-17T05:53:09.473Z,21.80
2023-02-17T05:55:41.054Z,17.27
2023-02-17T05:58:13.329Z,19.37
2023-02-17T06:00:41.230Z,21.30
2023-02-17T06:03:08.984Z,22.23
2023-02-17T06:05:36.694Z,19.73
2023-02-17T06:08:04.540Z,22.40
2023-02-17T06:10:32.874Z,21.27
2023-02-17T06:13:00.865Z,22.20
2023-02-17T06:15:30.875Z,19.57
2023-02-17T06:17:59.943Z,20.53
2023-02-17T06:20:31.146Z,19.97
2023-02-17T06:22:58.987Z,19.47
2023-02-17T06:25:26.786Z,22.50
2023-02-17T06:27:54.569Z,18.10
2023-02-17T06:30:23.250Z,17.50
2023-02-17T06:32:53.435Z,20.53
2023-02-17T06:35:21.715Z,19.03
2023-02-17T06:37:50.052Z,18.30
2023-02-17T06:40:20.907Z,18.20
2023-02-17T06:42:54.370Z,21.57
2023-02-17T06:45:22.239Z,18.60
2023-02-17T06:47:49.862Z,17.87
2023-02-17T06:50:17.653Z,18.43
2023-02-17T06:52:45.308Z,16.50
2023-02-17T06:55:12.943Z,17.03
2023-02-17T06:57:40.732Z,17.53
2023-02-17T07:00:09.122Z,19.10
2023-02-17T07:02:40.592Z,17.17
2023-02-17T07:05:09.021Z,19.57
2023-02-17T07:07:36.783Z,19.97
2023-02-17T07:10:14.442Z,17.73
2023-02-17T07:12:43.599Z,18.67
2023-02-17T07:15:12.515Z,20.17
2023-02-17T07:17:40.317Z,16.30
2023-02-17T07:20:09.396Z,17.33
2023-02-17T07:22:37.235Z,18.70
2023-02-17T07:25:06.261Z,16.13
2023-02-17T07:27:38.364Z,21.77
2023-02-17T07:30:07.243Z,19.60
2023-02-17T07:32:37.422Z,18.73
2023-02-17T07:35:06.446Z,19.20
2023-02-17T07:37:34.487Z,17.03
2023-02-17T07:40:02.424Z,17.10
2023-02-17T07:42:30.621Z,17.00
2023-02-17T07:44:58.408Z,19.63
2023-02-17T07:47:26.099Z,17.17
2023-02-17T07:49:53.905Z,17.47
2023-02-17T07:52:21.548Z,17.92
2023-02-17T07:54:49.184Z,16.08
2023-02-17T07:57:19.037Z,17.48
2023-02-17T07:59:48.035Z,15.70
2023-02-17T08:02:16.000Z,18.27
2023-02-17T08:04:45.206Z,16.35
2023-02-17T08:07:13.220Z,18.20
2023-02-17T08:09:59.714Z,16.17
2023-02-17T08:12:45.901Z,17.55
2023-02-17T08:15:13.999Z,16.67
2023-02-17T08:17:41.758Z,16.63
2023-02-17T08:20:11.317Z,20.83
2023-02-17T08:22:43.955Z,18.25
2023-02-17T08:25:11.798Z,21.30
2023-02-17T08:27:39.568Z,17.83
2023-02-17T08:30:08.299Z,20.10
2023-02-17T08:32:35.955Z,18.52
2023-02-17T08:35:04.155Z,19.38
2023-02-17T08:37:32.409Z,17.60
2023-02-17T08:40:00.223Z,16.48
2023-02-17T08:42:28.049Z,19.17
2023-02-17T08:44:55.815Z,17.13
2023-02-17T08:47:24.435Z,19.70
2023-02-17T08:49:52.283Z,18.40
2023-02-17T08:52:19.988Z,16.02
2023-02-17T08:54:52.842Z,19.67
2023-02-17T08:57:22.560Z,20.60
2023-02-17T08:59:50.764Z,19.38
2023-02-17T09:02:21.364Z,21.27
2023-02-17T09:04:49.303Z,21.52
2023-02-17T09:07:17.290Z,20.00
2023-02-17T09:09:45.393Z,26.75
2023-02-17T09:12:13.075Z,21.05
2023-02-17T09:14:42.919Z,23.25
2023-02-17T09:17:10.739Z,23.17
2023-02-17T09:19:40.748Z,21.90
2023-02-17T09:22:08.717Z,23.92
2023-02-17T09:24:38.773Z,24.35
2023-02-17T09:27:06.827Z,24.63
2023-02-17T09:29:36.663Z,23.37
2023-02-17T09:32:10.782Z,22.92
2023-02-17T09:34:40.039Z,20.70
2023-02-17T09:37:14.601Z,22.42
2023-02-17T09:39:44.805Z,22.00
2023-02-17T09:42:26.279Z,25.40
2023-02-17T09:45:04.873Z,23.77
2023-02-17T09:47:50.664Z,18.83
2023-02-17T09:50:46.274Z,21.38
2023-02-17T09:53:34.101Z,21.65
2023-02-17T09:56:14.623Z,24.77
2023-02-17T09:58:51.747Z,19.67
2023-02-17T10:01:34.707Z,23.17
2023-02-17T10:04:19.646Z,20.73
2023-02-17T10:06:59.665Z,20.25
2023-02-17T10:09:34.558Z,18.98
2023-02-17T10:12:31.230Z,17.38
2023-02-17T10:15:13.625Z,18.75
2023-02-17T10:17:55.934Z,19.70
2023-02-17T10:21:05.252Z,18.45
2023-02-17T10:23:36.279Z,19.60
2023-02-17T10:26:33.142Z,16.65
2023-02-17T10:29:14.580Z,18.58
2023-02-17T10:31:50.791Z,15.98
2023-02-17T10:34:36.864Z,16.65
2023-02-17T10:37:48.454Z,16.30
2023-02-17T10:40:21.765Z,16.13
2023-02-17T10:42:57.508Z,17.95
2023-02-17T10:45:38.283Z,17.73
2023-02-17T10:48:27.259Z,16.58
2023-02-17T10:51:01.424Z,15.45
2023-02-17T10:53:37.908Z,14.73
2023-02-17T10:56:17.717Z,17.02
2023-02-17T10:59:02.955Z,16.15
2023-02-17T11:01:33.530Z,13.73
2023-02-17T11:04:12.279Z,14.80
2023-02-17T11:06:53.364Z,14.65
2023-02-17T11:09:32.744Z,14.00
2023-02-17T11:12:18.959Z,14.32
2023-02-17T11:14:51.856Z,14.77
2023-02-17T11:17:36.256Z,13.80
2023-02-17T11:20:21.524Z,13.77
2023-02-17T11:23:04.204Z,12.60
2023-02-17T11:25:37.602Z,12.98
2023-02-17T11:28:27.272Z,14.57
2023-02-17T11:31:02.668Z,14.40
2023-02-17T11:33:39.551Z,13.32
2023-02-17T11:36:33.287Z,12.57
2023-02-17T11:39:27.138Z,12.95
2023-02-17T11:42:26.773Z,11.75
2023-02-17T11:45:13.733Z,9.48
2023-02-17T11:48:12.205Z,10.70
2023-02-17T11:51:25.280Z,12.27
2023-02-17T11:54:33.069Z,9.82
2023-02-17T11:57:31.912Z,11.05
2023-02-17T12:00:06.348Z,10.77
2023-02-17T12:03:41.471Z,10.80
2023-02-17T12:06:22.671Z,10.35
2023-02-17T12:09:34.112Z,9.32
2023-02-17T12:12:32.102Z,8.88
2023-02-17T12:15:40.172Z,9.43
2023-02-17T12:18:43.469Z,7.10
2023-02-17T12:21:53.655Z,7.10
2023-02-17T12:24:49.081Z,8.57
2023-02-17T12:27:43.962Z,8.20
2023-02-17T12:30:22.088Z,7.30
2023-02-17T12:33:24.644Z,8.90
2023-02-17T12:36:00.108Z,8.10
2023-02-17T12:38:43.355Z,7.20
2023-02-17T12:41:34.345Z,9.55
2023-02-17T12:44:14.548Z,6.72
2023-02-17T12:46:48.620Z,6.13
2023-02-17T12:49:35.947Z,5.53
2023-02-17T12:52:35.777Z,6.57
2023-02-17T12:55:23.586Z,10.18
2023-02-17T12:58:03.874Z,9.20
2023-02-17T13:00:45.208Z,5.13
2023-02-17T13:03:25.073Z,4.55
2023-02-17T13:06:23.586Z,7.63
2023-02-17T13:09:19.027Z,5.70
2023-02-17T13:11:54.424Z,4.95
2023-02-17T13:15:00.396Z,4.57
2023-02-17T13:17:52.378Z,5.57
2023-02-17T13:20:21.444Z,7.15
2023-02-17T13:22:49.370Z,6.85
2023-02-17T13:25:37.043Z,6.55
2023-02-17T13:28:35.390Z,8.25
2023-02-17T13:31:19.662Z,5.20
2023-02-17T13:33:55.083Z,7.05
2023-02-17T13:36:43.570Z,8.80
2023-02-17T13:39:36.353Z,6.57
2023-02-17T13:42:23.882Z,3.95
2023-02-17T13:44:53.873Z,6.15
2023-02-17T13:47:38.882Z,7.38
2023-02-17T13:50:25.405Z,6.35
2023-02-17T13:52:53.674Z,6.20
2023-02-17T13:55:24.155Z,5.85
2023-02-17T13:57:59.551Z,7.65
2023-02-17T14:00:30.911Z,9.45
2023-02-17T14:03:12.182Z,10.07
2023-02-17T14:05:52.342Z,6.45
2023-02-17T14:08:43.585Z,6.10
2023-02-17T14:11:21.277Z,10.35
2023-02-17T14:13:52.284Z,6.93
2023-02-17T14:16:37.499Z,8.02
2023-02-17T14:19:15.649Z,6.65
2023-02-17T14:22:06.195Z,5.50
2023-02-17T14:24:39.160Z,5.15
2023-02-17T14:27:14.092Z,7.18
2023-02-17T14:29:48.601Z,10.82
2023-02-17T14:32:38.724Z,6.90
2023-02-17T14:35:13.698Z,9.45
2023-02-17T14:37:42.424Z,6.20
2023-02-17T14:40:21.405Z,9.88
2023-02-17T14:42:51.951Z,9.20
2023-02-17T14:45:20.333Z,11.27
2023-02-17T14:47:48.503Z,11.27
2023-02-17T14:50:17.460Z,10.85
2023-02-17T14:52:48.998Z,11.80
2023-02-17T14:55:45.844Z,8.60
2023-02-17T14:58:21.859Z,16.35
2023-02-17T15:01:03.818Z,12.07
2023-02-17T15:03:43.419Z,17.15
2023-02-17T15:06:22.424Z,16.45
2023-02-17T15:08:54.806Z,13.48
2023-02-17T15:11:37.023Z,10.63
2023-02-17T15:14:07.490Z,13.85
2023-02-17T15:16:35.376Z,19.55
2023-02-17T15:19:03.152Z,15.52
2023-02-17T15:21:34.684Z,15.40
2023-02-17T15:24:08.692Z,16.38
2023-02-17T15:26:37.834Z,16.48
2023-02-17T15:29:05.498Z,12.02
2023-02-17T15:31:36.235Z,9.55
2023-02-17T15:34:11.630Z,10.38
2023-02-17T15:36:42.922Z,11.35
2023-02-17T15:39:13.962Z,15.98
2023-02-17T15:41:43.400Z,11.48
2023-02-17T15:44:23.800Z,11.88
2023-02-17T15:46:55.063Z,9.90
2023-02-17T15:49:23.059Z,12.85
2023-02-17T15:51:50.879Z,12.88
2023-02-17T15:54:19.530Z,8.80
2023-02-17T15:56:50.738Z,8.55
2023-02-17T15:59:23.675Z,11.32
2023-02-17T16:01:52.912Z,10.07
2023-02-17T16:04:20.943Z,8.82
2023-02-17T16:06:48.836Z,8.68
2023-02-17T16:09:16.571Z,8.95
2023-02-17T16:11:54.359Z,11.70
2023-02-17T16:14:35.242Z,9.13
2023-02-17T16:17:04.887Z,8.43
2023-02-17T16:19:33.350Z,9.20
2023-02-17T16:22:01.087Z,8.15
2023-02-17T16:24:28.787Z,8.80
2023-02-17T16:26:56.668Z,5.97
2023-02-17T16:29:24.494Z,7.50
2023-02-17T16:31:52.738Z,6.35
2023-02-17T16:34:25.835Z,5.00
2023-02-17T16:36:56.379Z,6.45
2023-02-17T16:39:24.090Z,5.53
2023-02-17T16:41:52.246Z,6.97
2023-02-17T16:44:22.664Z,5.30
2023-02-17T16:46:56.031Z,5.07
2023-02-17T16:49:34.229Z,5.95
2023-02-17T16:52:06.147Z,3.75
2023-02-17T16:54:35.755Z,5.10
2023-02-17T16:57:03.850Z,4.72
2023-02-17T16:59:31.573Z,5.20
2023-02-17T17:01:59.522Z,6.70
2023-02-17T17:04:27.365Z,8.27
2023-02-17T17:06:55.267Z,5.80
2023-02-17T17:09:24.743Z,5.53
2023-02-17T17:11:52.413Z,3.95
2023-02-17T17:14:21.754Z,4.05
2023-02-17T17:16:58.658Z,9.77
2023-02-17T17:19:26.585Z,4.75
2023-02-17T17:21:54.832Z,3.90
2023-02-17T17:24:22.872Z,4.40
2023-02-17T17:26:51.555Z,3.85
2023-02-17T17:29:20.220Z,4.03
2023-02-17T17:31:48.181Z,5.30
2023-02-17T17:34:16.052Z,4.65
2023-02-17T17:36:46.895Z,5.32
2023-02-17T17:39:23.916Z,5.97
2023-02-17T17:41:51.918Z,6.38
2023-02-17T17:44:20.566Z,4.72
2023-02-17T17:46:48.603Z,8.77
2023-02-17T17:49:18.261Z,6.82
2023-02-17T17:51:46.669Z,3.78
2023-02-17T17:54:17.593Z,5.82
2023-02-17T17:56:50.249Z,5.45
2023-02-17T17:59:21.437Z,4.88
2023-02-17T18:01:49.534Z,4.18
2023-02-17T18:04:17.346Z,5.00
2023-02-17T18:06:53.076Z,5.38
2023-02-17T18:09:32.099Z,6.93
2023-02-17T18:12:07.302Z,4.10
2023-02-17T18:14:39.109Z,3.90
2023-02-17T18:17:09.239Z,3.22
2023-02-17T18:19:37.488Z,3.38
2023-02-17T18:22:05.252Z,3.65
2023-02-17T18:24:33.394Z,6.63
2023-02-17T18:27:01.060Z,4.55
2023-02-17T18:29:29.138Z,4.63
2023-02-17T18:31:59.080Z,5.93
2023-02-17T18:34:27.018Z,9.15
2023-02-17T18:36:54.712Z,6.03
2023-02-17T18:39:22.527Z,8.80
2023-02-17T18:41:50.147Z,3.85
2023-02-17T18:44:18.213Z,6.28
2023-02-17T18:46:45.880Z,7.13
2023-02-17T18:49:13.751Z,8.70
2023-02-17T18:51:41.565Z,5.63
2023-02-17T18:54:11.005Z,5.18
2023-02-17T18:56:39.009Z,3.85
2023-02-17T18:59:07.217Z,12.00
2023-02-17T19:01:41.416Z,10.00
2023-02-17T19:04:11.892Z,5.70
2023-02-17T19:06:41.666Z,4.82
2023-02-17T19:09:09.529Z,3.42
2023-02-17T19:11:37.289Z,5.35
2023-02-17T19:14:05.123Z,4.90
2023-02-17T19:16:33.138Z,7.75
2023-02-17T19:19:01.460Z,8.05
2023-02-17T19:21:29.236Z,7.20
2023-02-17T19:23:56.988Z,9.93
2023-02-17T19:26:25.649Z,4.85
2023-02-17T19:29:07.513Z,5.10
2023-02-17T19:31:38.571Z,5.13
2023-02-17T19:34:19.469Z,6.00
2023-02-17T19:37:46.566Z,9.43
2023-02-17T19:40:16.012Z,6.75
2023-02-17T19:42:51.960Z,8.40
2023-02-17T19:45:20.004Z,4.10
2023-02-17T19:47:51.575Z,7.63
2023-02-17T19:50:50.618Z,13.13
2023-02-17T19:53:44.609Z,3.20
2023-02-17T19:56:25.449Z,5.93
2023-02-17T19:58:54.735Z,6.23
2023-02-17T20:01:30.921Z,8.23
2023-02-17T20:04:01.557Z,5.60
2023-02-17T20:06:34.750Z,3.27
2023-02-17T20:09:07.244Z,4.47
2023-02-17T20:11:35.112Z,4.97
2023-02-17T20:14:07.143Z,6.20
2023-02-17T20:16:35.334Z,8.43
2023-02-17T20:19:04.863Z,7.53
2023-02-17T20:21:38.434Z,10.90
2023-02-17T20:24:06.848Z,7.13
2023-02-17T20:26:41.290Z,7.27
2023-02-17T20:29:10.228Z,10.07
2023-02-17T20:31:39.702Z,9.30
2023-02-17T20:34:26.411Z,11.30
2023-02-17T20:36:54.906Z,15.23
2023-02-17T20:39:23.637Z,9.83
2023-02-17T20:41:52.153Z,9.33
2023-02-17T20:44:23.528Z,12.63
2023-02-17T20:46:53.962Z,10.40
2023-02-17T20:49:22.206Z,10.80
2023-02-17T20:51:50.027Z,10.23
2023-02-17T20:54:18.211Z,9.13
2023-02-17T20:56:47.620Z,8.13
2023-02-17T20:59:15.725Z,8.77
2023-02-17T21:01:43.782Z,11.63
2023-02-17T21:04:14.013Z,8.70
2023-02-17T21:06:45.634Z,7.87
2023-02-17T21:09:17.388Z,9.60
2023-02-17T21:11:46.660Z,10.97
2023-02-17T21:14:14.789Z,9.77
2023-02-17T21:16:42.694Z,10.93
2023-02-17T21:19:10.717Z,10.07
2023-02-17T21:21:39.227Z,6.87
2023-02-17T21:24:07.068Z,9.17
2023-02-17T21:26:34.834Z,14.10
2023-02-17T21:29:03.839Z,6.13
2023-02-17T21:31:31.920Z,12.73
2023-02-17T21:34:00.326Z,6.20
2023-02-17T21:36:29.535Z,9.63
2023-02-17T21:39:00.565Z,7.17
2023-02-17T21:41:30.230Z,6.70
2023-02-17T21:44:21.308Z,6.00
2023-02-17T21:46:54.536Z,5.50
2023-02-17T21:49:26.973Z,7.13
2023-02-17T21:51:54.817Z,9.90
2023-02-17T21:54:22.864Z,7.07
2023-02-17T21:56:50.830Z,14.43
2023-02-17T21:59:18.719Z,9.00
2023-02-17T22:01:46.349Z,9.00
2023-02-17T22:04:14.272Z,5.30
2023-02-17T22:06:44.741Z,14.17
2023-02-17T22:09:17.996Z,7.73
2023-02-17T22:11:46.962Z,5.67
2023-02-17T22:14:18.535Z,8.13
2023-02-17T22:16:49.103Z,11.43
2023-02-17T22:19:25.736Z,10.00
2023-02-17T22:21:53.931Z,12.30
2023-02-17T22:24:29.322Z,16.13
2023-02-17T22:26:57.497Z,13.33
2023-02-17T22:29:25.290Z,20.27
2023-02-17T22:31:55.942Z,13.27
2023-02-17T22:34:24.276Z,16.73
2023-02-17T22:36:52.023Z,19.40
2023-02-17T22:39:19.761Z,12.07
2023-02-17T22:41:47.659Z,9.67
2023-02-17T22:44:15.465Z,18.03
2023-02-17T22:46:43.323Z,18.10
2023-02-17T22:49:11.113Z,13.30
2023-02-17T22:51:40.494Z,8.70
2023-02-17T22:54:08.761Z,9.90
2023-02-17T22:56:37.126Z,12.53
2023-02-17T22:59:05.562Z,18.53
2023-02-17T23:01:36.969Z,12.03
2023-02-17T23:04:05.604Z,19.40
2023-02-17T23:06:37.283Z,19.07
2023-02-17T23:09:08.066Z,9.27
2023-02-17T23:11:52.277Z,13.47
2023-02-17T23:14:30.630Z,18.87
2023-02-17T23:17:05.517Z,20.73
2023-02-17T23:19:33.479Z,14.93
2023-02-17T23:22:06.458Z,14.13
2023-02-17T23:24:34.949Z,14.13
2023-02-17T23:27:03.742Z,15.40
2023-02-17T23:29:32.017Z,18.27
2023-02-17T23:31:59.886Z,13.70
2023-02-17T23:34:28.569Z,12.20
2023-02-17T23:36:56.828Z,25.20
2023-02-17T23:39:24.951Z,11.87
2023-02-17T23:41:52.562Z,22.10
2023-02-17T23:44:20.530Z,8.63
2023-02-17T23:46:48.173Z,12.10
2023-02-17T23:49:17.593Z,20.10
2023-02-17T23:51:46.829Z,14.57
2023-02-17T23:54:15.272Z,19.83
2023-02-17T23:56:43.116Z,11.47
2023-02-17T23:59:11.689Z,12.13
